Time;durP1;ratioP1;P1;durP2;ratioP2;P2;SDS_P1;SDS_P2;PMS_P1;PMS_P2;Temp;Humidity;BMP_temperature;BMP_pressure;BME280_temperature;BME280_humidity;BME280_pressure;Samples;Min_cycle;Max_cycle;Signal;HPM_P1;HPM_P2
2021/07/10 00:01:42;;;;;;;22.95;11.15;;;20.00;99.90;;;;;;4956245;29;20166;-80
2021/07/10 00:04:08;;;;;;;15.20;11.00;;;20.00;99.90;;;;;;4956668;29;20199;-80
2021/07/10 00:06:34;;;;;;;14.32;10.52;;;20.10;99.90;;;;;;4957413;29;20178;-80
2021/07/10 00:08:59;;;;;;;20.33;11.45;;;20.10;99.90;;;;;;4956543;29;20254;-79
2021/07/10 00:11:25;;;;;;;19.35;11.10;;;19.90;99.90;;;;;;4955011;28;20177;-78
2021/07/10 00:13:51;;;;;;;14.82;11.68;;;19.80;99.90;;;;;;4955924;29;20214;-78
2021/07/10 00:16:17;;;;;;;18.08;11.00;;;19.70;99.90;;;;;;4956153;29;20175;-78
2021/07/10 00:18:42;;;;;;;21.92;11.95;;;19.70;99.90;;;;;;4956462;29;20298;-78
2021/07/10 00:21:08;;;;;;;17.33;11.50;;;19.70;99.90;;;;;;4956374;29;20670;-78
2021/07/10 00:23:34;;;;;;;21.67;11.18;;;19.70;99.90;;;;;;4956534;29;20194;-78
2021/07/10 00:26:00;;;;;;;12.55;10.25;;;19.70;99.90;;;;;;4963752;29;20230;-78
2021/07/10 00:28:25;;;;;;;14.38;11.02;;;19.80;99.90;;;;;;4965455;29;20539;-77
2021/07/10 00:30:51;;;;;;;16.20;10.65;;;19.80;99.90;;;;;;4965405;29;20210;-78
2021/07/10 00:33:16;;;;;;;13.93;10.00;;;19.70;99.90;;;;;;4965962;29;20194;-77
2021/07/10 00:35:42;;;;;;;12.85;10.70;;;19.70;99.90;;;;;;4969079;28;20186;-79
2021/07/10 00:38:08;;;;;;;15.13;10.88;;;19.60;99.90;;;;;;4970964;28;20163;-79
2021/07/10 00:40:34;;;;;;;15.82;10.73;;;19.70;99.90;;;;;;4970048;28;20237;-79
2021/07/10 00:42:59;;;;;;;18.48;11.52;;;19.70;99.90;;;;;;4973335;28;20163;-78
2021/07/10 00:45:25;;;;;;;16.52;11.18;;;19.80;99.90;;;;;;4968458;28;20670;-78
2021/07/10 00:47:50;;;;;;;13.57;11.35;;;19.70;99.90;;;;;;4955984;29;20229;-78
2021/07/10 00:50:20;;;;;;;15.50;10.80;;;19.50;99.90;;;;;;4955806;29;20209;-79
2021/07/10 00:52:46;;;;;;;19.13;11.27;;;19.50;99.90;;;;;;4938414;29;20643;-78
2021/07/10 00:55:13;;;;;;;20.42;11.38;;;19.40;99.90;;;;;;4955663;29;20258;-79
2021/07/10 00:57:41;;;;;;;21.73;11.10;;;19.50;99.90;;;;;;4955642;29;20199;-78
2021/07/10 01:00:14;;;;;;;17.77;10.10;;;19.60;99.90;;;;;;4955221;29;20167;-77
2021/07/10 01:02:41;;;;;;;13.93;10.38;;;19.50;99.90;;;;;;4955413;29;20704;-78
2021/07/10 01:05:09;;;;;;;19.92;12.10;;;19.50;99.90;;;;;;4955349;29;20198;-77
2021/07/10 01:07:36;;;;;;;19.40;11.30;;;19.70;99.90;;;;;;4938213;29;20391;-78
2021/07/10 01:10:02;;;;;;;13.57;10.07;;;19.80;99.90;;;;;;4955214;29;20560;-79
2021/07/10 01:12:32;;;;;;;15.63;11.70;;;19.70;99.90;;;;;;4955149;29;20166;-78
2021/07/10 01:14:58;;;;;;;16.10;11.52;;;19.70;99.90;;;;;;4955013;29;20186;-78
2021/07/10 01:17:23;;;;;;;19.98;12.23;;;19.40;99.90;;;;;;4955199;29;20201;-77
2021/07/10 01:20:01;;;;;;;20.88;11.82;;;19.20;99.90;;;;;;4954779;29;20628;-78
2021/07/10 01:22:27;;;;;;;17.33;12.38;;;19.20;99.90;;;;;;4954620;28;20213;-78
2021/07/10 01:24:53;;;;;;;14.80;12.05;;;19.20;99.90;;;;;;4955431;29;20217;-78
2021/07/10 01:27:19;;;;;;;19.65;11.27;;;19.30;99.90;;;;;;4954758;29;20166;-79
2021/07/10 01:29:46;;;;;;;18.35;12.18;;;19.20;99.90;;;;;;4954592;29;20293;-78
2021/07/10 01:32:14;;;;;;;13.82;11.35;;;19.20;99.90;;;;;;4954869;29;20222;-78
2021/07/10 01:34:40;;;;;;;18.40;12.50;;;19.30;99.90;;;;;;4954711;29;20611;-78
2021/07/10 01:37:06;;;;;;;17.35;12.65;;;19.20;99.90;;;;;;4954407;29;20166;-77
2021/07/10 01:39:31;;;;;;;18.85;12.73;;;19.40;99.90;;;;;;4954741;29;20186;-78
2021/07/10 01:41:57;;;;;;;19.95;12.57;;;19.30;99.90;;;;;;4954582;29;20224;-78
2021/07/10 01:44:23;;;;;;;17.42;10.63;;;19.20;99.90;;;;;;4954384;29;20563;-78
2021/07/10 01:46:48;;;;;;;13.10;10.98;;;19.10;99.90;;;;;;4954672;29;20221;-78
2021/07/10 01:49:14;;;;;;;17.40;12.00;;;19.20;99.90;;;;;;4937232;29;20175;-78
2021/07/10 01:51:39;;;;;;;15.63;11.63;;;19.20;99.90;;;;;;4954476;29;20225;-78
2021/07/10 01:54:05;;;;;;;13.82;11.73;;;19.30;99.90;;;;;;4954550;29;20187;-78
2021/07/10 01:56:32;;;;;;;16.50;11.90;;;19.40;99.90;;;;;;4954411;29;20177;-78
2021/07/10 01:58:58;;;;;;;14.98;10.43;;;19.20;99.90;;;;;;4954531;29;20536;-78
2021/07/10 02:01:23;;;;;;;17.13;11.18;;;19.00;99.90;;;;;;4937403;29;20178;-78
2021/07/10 02:03:49;;;;;;;16.42;12.80;;;18.90;99.90;;;;;;4954533;29;20194;-77
2021/07/10 02:06:15;;;;;;;19.20;12.52;;;18.70;99.90;;;;;;4954249;29;20185;-79
2021/07/10 02:08:41;;;;;;;18.02;11.90;;;18.80;99.90;;;;;;4954431;29;20174;-78
2021/07/10 02:11:06;;;;;;;21.17;11.82;;;18.90;99.90;;;;;;4936963;29;20312;-78
2021/07/10 02:13:32;;;;;;;16.75;11.93;;;19.00;99.90;;;;;;4954719;29;20194;-78
2021/07/10 02:15:58;;;;;;;20.13;11.85;;;18.90;99.90;;;;;;4954112;29;20173;-78
2021/07/10 02:18:24;;;;;;;21.15;13.20;;;18.90;99.90;;;;;;4954375;29;20174;-78
2021/07/10 02:20:49;;;;;;;19.25;13.10;;;18.60;99.90;;;;;;4937039;29;20690;-78
2021/07/10 02:23:15;;;;;;;20.77;12.73;;;18.60;99.90;;;;;;4954541;29;20257;-79
2021/07/10 02:25:41;;;;;;;22.33;13.05;;;18.70;99.90;;;;;;4937007;29;20940;-78
2021/07/10 02:28:06;;;;;;;18.55;12.38;;;18.80;99.90;;;;;;4954286;29;20190;-79
2021/07/10 02:30:34;;;;;;;19.88;12.63;;;18.60;99.90;;;;;;4936858;29;20218;-78
2021/07/10 02:33:02;;;;;;;19.80;12.95;;;18.70;99.90;;;;;;4954155;29;20166;-79
2021/07/10 02:35:29;;;;;;;27.50;12.90;;;18.70;99.90;;;;;;4956028;28;20198;-78
2021/07/10 02:37:57;;;;;;;22.38;13.40;;;18.70;99.90;;;;;;4957900;29;20170;-78
2021/07/10 02:40:22;;;;;;;16.25;12.48;;;18.70;99.90;;;;;;4957887;29;20266;-78
2021/07/10 02:42:49;;;;;;;19.67;12.02;;;18.40;99.90;;;;;;4957778;29;20309;-78
2021/07/10 02:45:17;;;;;;;19.10;11.90;;;18.30;99.90;;;;;;4956522;29;20193;-78
2021/07/10 02:47:43;;;;;;;22.73;12.68;;;18.30;99.90;;;;;;4957992;29;20194;-81
2021/07/10 02:50:15;;;;;;;18.83;12.02;;;18.30;99.90;;;;;;4957777;29;20253;-80
2021/07/10 02:52:41;;;;;;;15.75;11.25;;;18.20;99.90;;;;;;4957534;29;20163;-78
2021/07/10 02:55:07;;;;;;;20.58;12.52;;;18.20;99.90;;;;;;4957738;29;20194;-77
2021/07/10 02:57:33;;;;;;;22.90;12.55;;;18.30;99.90;;;;;;4957656;29;20163;-78
2021/07/10 03:00:00;;;;;;;17.15;11.85;;;18.50;99.90;;;;;;4957593;29;20290;-78
2021/07/10 03:02:26;;;;;;;18.63;12.32;;;18.30;99.90;;;;;;4957460;29;20166;-78
2021/07/10 03:04:51;;;;;;;17.10;11.80;;;18.20;99.90;;;;;;4957319;29;20194;-78
2021/07/10 03:07:17;;;;;;;16.35;12.07;;;18.10;99.90;;;;;;4957314;29;20179;-78
2021/07/10 03:09:42;;;;;;;17.50;11.77;;;18.30;99.90;;;;;;4957339;29;20213;-78
2021/07/10 03:12:08;;;;;;;17.13;12.57;;;18.50;99.90;;;;;;4940122;29;20250;-78
2021/07/10 03:14:34;;;;;;;18.67;12.55;;;18.50;99.90;;;;;;4957007;29;20194;-78
2021/07/10 03:17:00;;;;;;;27.50;13.13;;;18.50;99.90;;;;;;4957190;29;20229;-78
2021/07/10 03:19:25;;;;;;;17.63;11.70;;;18.40;99.90;;;;;;4957436;29;20171;-78
2021/07/10 03:21:51;;;;;;;16.10;12.82;;;18.40;99.90;;;;;;4957203;29;20620;-78
2021/07/10 03:24:17;;;;;;;18.92;12.80;;;18.60;99.90;;;;;;4957056;29;20667;-78
2021/07/10 03:26:42;;;;;;;22.10;13.23;;;18.50;99.90;;;;;;4940066;29;20682;-78
2021/07/10 03:29:08;;;;;;;19.27;11.70;;;18.50;99.90;;;;;;4956840;29;20194;-78
2021/07/10 03:31:34;;;;;;;19.98;13.00;;;18.70;99.90;;;;;;4956892;29;20198;-78
2021/07/10 03:33:59;;;;;;;15.38;11.77;;;18.70;99.90;;;;;;4957153;29;20254;-77
2021/07/10 03:36:27;;;;;;;21.80;12.80;;;18.80;99.90;;;;;;4940096;29;20210;-77
2021/07/10 03:38:54;;;;;;;15.43;11.80;;;18.90;99.90;;;;;;4956777;29;20171;-78
2021/07/10 03:41:20;;;;;;;22.38;12.77;;;19.00;99.90;;;;;;4957246;29;20654;-80
2021/07/10 03:43:46;;;;;;;17.70;12.95;;;19.10;99.90;;;;;;4956953;29;20423;-78
2021/07/10 03:46:11;;;;;;;20.42;13.13;;;19.20;99.90;;;;;;4956850;28;20229;-78
2021/07/10 03:48:37;;;;;;;18.77;13.23;;;19.00;99.90;;;;;;4956751;29;20174;-78
2021/07/10 03:51:04;;;;;;;19.50;12.57;;;18.80;99.90;;;;;;4956090;29;20569;-78
2021/07/10 03:53:29;;;;;;;20.23;12.80;;;19.00;99.90;;;;;;4956711;29;20194;-78
2021/07/10 03:55:55;;;;;;;17.55;12.27;;;19.10;99.90;;;;;;4956542;29;20392;-77
2021/07/10 03:58:21;;;;;;;20.60;12.52;;;19.10;99.90;;;;;;4956624;29;20163;-77
2021/07/10 04:00:46;;;;;;;24.80;12.80;;;19.20;99.90;;;;;;4956378;29;20167;-78
2021/07/10 04:03:12;;;;;;;25.75;13.90;;;19.10;99.90;;;;;;4939164;29;20261;-78
2021/07/10 04:05:38;;;;;;;21.38;13.93;;;19.10;99.90;;;;;;4939058;29;20170;-78
2021/07/10 04:08:03;;;;;;;24.00;14.23;;;19.10;99.90;;;;;;4956386;29;20167;-78
2021/07/10 04:10:29;;;;;;;31.05;13.95;;;19.20;99.90;;;;;;4956249;29;20214;-78
2021/07/10 04:12:55;;;;;;;20.55;12.77;;;19.30;99.90;;;;;;4956298;29;20170;-78
2021/07/10 04:15:21;;;;;;;19.65;13.52;;;19.10;99.90;;;;;;4956193;29;20198;-77
2021/07/10 04:17:47;;;;;;;19.05;12.52;;;19.20;99.90;;;;;;4956295;29;20229;-78
2021/07/10 04:20:15;;;;;;;21.85;13.48;;;19.10;99.90;;;;;;4956025;29;20171;-78
2021/07/10 04:22:41;;;;;;;18.67;12.45;;;19.00;99.90;;;;;;4956218;29;20173;-77
2021/07/10 04:25:10;;;;;;;17.67;12.65;;;19.00;99.90;;;;;;4956474;29;20238;-79
2021/07/10 04:27:38;;;;;;;19.27;12.35;;;18.90;99.90;;;;;;4956738;29;20166;-80
2021/07/10 04:30:06;;;;;;;29.30;13.27;;;19.00;99.90;;;;;;4957218;29;20221;-79
2021/07/10 04:32:31;;;;;;;18.00;11.40;;;18.90;99.90;;;;;;4956393;29;20194;-79
2021/07/10 04:34:57;;;;;;;18.50;12.77;;;19.00;99.90;;;;;;4955982;29;20186;-79
2021/07/10 04:37:23;;;;;;;19.08;12.40;;;19.10;99.90;;;;;;4955906;29;20175;-79
2021/07/10 04:39:49;;;;;;;19.02;12.23;;;19.30;99.90;;;;;;4955862;29;20163;-79
2021/07/10 04:42:15;;;;;;;18.40;13.20;;;19.50;99.90;;;;;;4955711;29;20178;-79
2021/07/10 04:44:40;;;;;;;17.20;11.98;;;19.40;99.90;;;;;;4938250;29;20194;-79
2021/07/10 04:47:06;;;;;;;22.52;13.23;;;19.20;99.90;;;;;;4955524;29;20310;-79
2021/07/10 04:49:32;;;;;;;15.75;12.65;;;19.10;99.90;;;;;;4955573;29;21003;-78
2021/07/10 04:51:58;;;;;;;17.50;13.00;;;19.00;99.90;;;;;;4955301;29;20182;-79
2021/07/10 04:54:23;;;;;;;23.40;12.82;;;19.10;99.90;;;;;;4955330;29;20591;-78
2021/07/10 04:56:49;;;;;;;23.63;13.25;;;19.20;99.90;;;;;;4955326;29;20189;-79
2021/07/10 04:59:14;;;;;;;14.77;11.50;;;19.20;99.90;;;;;;4954793;28;20174;-79
2021/07/10 05:01:40;;;;;;;16.27;11.20;;;19.40;99.90;;;;;;4955299;29;20258;-79
2021/07/10 05:04:06;;;;;;;16.08;11.85;;;19.40;99.90;;;;;;4954886;29;20213;-78
2021/07/10 05:06:31;;;;;;;18.15;12.27;;;19.50;99.90;;;;;;4955296;29;20170;-79
2021/07/10 05:08:57;;;;;;;21.17;12.80;;;19.50;99.90;;;;;;4955191;29;20217;-79
2021/07/10 05:11:23;;;;;;;17.17;12.60;;;19.40;99.90;;;;;;4955259;29;20210;-79
2021/07/10 05:13:48;;;;;;;21.75;13.07;;;19.60;99.90;;;;;;4955080;29;20865;-78
2021/07/10 05:16:14;;;;;;;17.83;12.38;;;19.70;99.90;;;;;;4954974;29;20182;-78
2021/07/10 05:18:40;;;;;;;23.73;12.95;;;19.80;99.90;;;;;;4954925;29;20185;-79
2021/07/10 05:21:05;;;;;;;19.33;12.18;;;19.90;99.90;;;;;;4954781;29;20174;-79
2021/07/10 05:23:31;;;;;;;16.67;11.93;;;19.90;99.90;;;;;;4955279;29;20194;-79
2021/07/10 05:25:57;;;;;;;26.52;12.50;;;19.90;99.90;;;;;;4955282;29;20174;-79
2021/07/10 05:28:22;;;;;;;14.50;11.95;;;20.00;99.90;;;;;;4954979;29;20178;-79
2021/07/10 05:30:49;;;;;;;16.50;11.52;;;20.20;99.90;;;;;;4954347;29;20252;-79
2021/07/10 05:33:16;;;;;;;16.65;12.05;;;20.30;99.90;;;;;;4954284;29;20628;-80
2021/07/10 05:35:46;;;;;;;15.20;11.52;;;20.40;99.90;;;;;;4954723;29;20171;-79
2021/07/10 05:38:16;;;;;;;14.05;11.65;;;20.50;99.90;;;;;;4954534;29;20163;-79
2021/07/10 05:40:43;;;;;;;15.50;11.45;;;20.50;99.90;;;;;;4954650;29;20174;-78
2021/07/10 05:43:09;;;;;;;17.25;11.80;;;20.40;99.90;;;;;;4954559;29;20658;-78
2021/07/10 05:45:34;;;;;;;16.52;12.70;;;20.50;99.90;;;;;;4954608;29;20209;-79
2021/07/10 05:48:00;;;;;;;15.45;11.75;;;20.40;99.90;;;;;;4937656;29;20261;-79
2021/07/10 05:50:26;;;;;;;16.92;12.57;;;20.20;99.90;;;;;;4934926;29;20287;-78
2021/07/10 05:52:55;;;;;;;12.43;11.18;;;20.10;99.90;;;;;;4937855;29;20173;-79
2021/07/10 05:55:21;;;;;;;19.30;12.35;;;20.20;99.90;;;;;;4953011;29;20194;-79
2021/07/10 05:57:47;;;;;;;18.40;12.55;;;20.30;99.90;;;;;;4936593;29;20179;-78
2021/07/10 06:00:13;;;;;;;17.83;12.38;;;20.40;99.90;;;;;;4953233;29;20544;-79
2021/07/10 06:02:39;;;;;;;24.55;12.88;;;20.30;99.90;;;;;;4952554;29;20174;-79
2021/07/10 06:05:07;;;;;;;14.50;12.30;;;20.30;99.90;;;;;;4932099;29;20266;-78
2021/07/10 06:07:33;;;;;;;20.20;12.07;;;20.40;99.90;;;;;;4927360;29;20242;-78
2021/07/10 06:09:59;;;;;;;17.58;11.95;;;20.20;99.90;;;;;;4946881;28;20214;-80
2021/07/10 06:12:24;;;;;;;14.50;12.25;;;20.40;99.90;;;;;;4953165;29;20261;-80
2021/07/10 06:14:50;;;;;;;15.55;11.65;;;20.50;99.90;;;;;;4953345;29;20903;-78
2021/07/10 06:17:16;;;;;;;13.02;11.05;;;20.70;99.90;;;;;;4934489;29;20182;-79
2021/07/10 06:19:42;;;;;;;17.00;12.70;;;20.90;99.90;;;;;;4946291;29;20209;-79
2021/07/10 06:22:08;;;;;;;16.58;12.07;;;21.10;99.90;;;;;;4953250;29;20162;-81
2021/07/10 06:24:35;;;;;;;16.30;12.23;;;21.30;99.90;;;;;;4953479;29;20265;-83
2021/07/10 06:27:00;;;;;;;15.35;12.32;;;21.40;99.90;;;;;;4935364;29;20217;-81
2021/07/10 06:29:26;;;;;;;11.00;9.90;;;21.60;99.90;;;;;;4952559;29;20230;-80
2021/07/10 06:31:52;;;;;;;16.10;8.90;;;21.70;99.90;;;;;;4935765;29;20167;-81
2021/07/10 06:34:17;;;;;;;9.52;7.47;;;21.60;99.90;;;;;;4952663;29;20183;-82
2021/07/10 06:36:43;;;;;;;10.90;7.38;;;21.80;99.90;;;;;;4952722;28;20183;-80
2021/07/10 06:39:09;;;;;;;10.75;7.82;;;21.80;99.90;;;;;;4951891;29;20277;-80
2021/07/10 06:41:37;;;;;;;8.43;7.50;;;21.90;99.90;;;;;;4952844;29;20509;-80
2021/07/10 06:44:03;;;;;;;8.95;7.50;;;21.90;99.90;;;;;;4952220;29;20246;-81
2021/07/10 06:46:29;;;;;;;18.30;7.38;;;22.00;99.90;;;;;;4935376;29;20179;-80
2021/07/10 06:48:55;;;;;;;12.13;9.95;;;22.10;99.90;;;;;;4952524;29;20190;-81
2021/07/10 06:51:20;;;;;;;9.20;8.15;;;22.30;99.90;;;;;;4935190;29;20294;-80
2021/07/10 06:53:46;;;;;;;16.52;9.48;;;22.20;99.90;;;;;;4935036;29;20206;-80
2021/07/10 06:56:12;;;;;;;14.40;7.70;;;22.30;99.90;;;;;;4950955;28;20185;-81
2021/07/10 06:58:38;;;;;;;10.77;7.72;;;22.20;99.90;;;;;;4950389;28;20178;-81
2021/07/10 07:01:03;;;;;;;9.05;8.23;;;22.30;99.90;;;;;;4950122;28;20178;-80
2021/07/10 07:03:31;;;;;;;15.63;6.95;;;22.00;99.90;;;;;;4952173;28;20199;-82
2021/07/10 07:05:57;;;;;;;8.10;7.25;;;21.50;99.90;;;;;;4943118;29;20166;-81
2021/07/10 07:08:23;;;;;;;8.52;6.60;;;21.50;99.90;;;;;;4948107;28;20533;-81
2021/07/10 07:10:49;;;;;;;9.48;6.63;;;21.80;99.90;;;;;;4952962;29;20337;-81
2021/07/10 07:13:14;;;;;;;9.20;6.78;;;21.70;99.90;;;;;;4953147;29;20187;-80
2021/07/10 07:15:40;;;;;;;9.43;7.32;;;22.20;99.90;;;;;;4934442;29;20174;-81
2021/07/10 07:18:06;;;;;;;6.93;6.22;;;22.50;99.90;;;;;;4949241;29;20667;-80
2021/07/10 07:20:32;;;;;;;8.48;6.85;;;22.90;99.90;;;;;;4936573;28;20291;-80
2021/07/10 07:22:57;;;;;;;7.82;5.80;;;23.20;99.90;;;;;;4955615;28;20189;-82
2021/07/10 07:25:23;;;;;;;9.48;7.03;;;22.90;99.90;;;;;;4940916;29;20313;-81
2021/07/10 07:27:51;;;;;;;7.65;6.57;;;23.20;99.90;;;;;;4955941;28;20655;-81
2021/07/10 07:30:18;;;;;;;6.25;5.68;;;23.40;99.90;;;;;;4956669;28;20671;-81
2021/07/10 07:32:45;;;;;;;16.02;5.88;;;23.90;99.90;;;;;;4924002;29;20269;-82
2021/07/10 07:35:13;;;;;;;6.70;5.72;;;24.20;99.90;;;;;;4957221;29;20209;-83
2021/07/10 07:37:39;;;;;;;6.38;5.88;;;24.30;99.90;;;;;;4941958;28;20198;-81
2021/07/10 07:40:08;;;;;;;10.80;6.78;;;24.60;99.90;;;;;;4945017;29;20207;-81
2021/07/10 07:42:34;;;;;;;7.30;6.15;;;24.90;99.90;;;;;;4938248;29;20273;-82
2021/07/10 07:45:00;;;;;;;5.15;4.65;;;25.20;99.90;;;;;;4954759;29;20257;-81
2021/07/10 07:47:26;;;;;;;5.68;5.07;;;25.70;99.90;;;;;;4955002;29;20183;-86
2021/07/10 07:49:52;;;;;;;4.65;4.25;;;25.30;99.90;;;;;;4957947;29;20281;-83
2021/07/10 07:52:17;;;;;;;7.43;4.57;;;25.60;99.90;;;;;;4956516;29;20182;-82
2021/07/10 07:54:43;;;;;;;4.85;4.45;;;25.70;99.90;;;;;;4954648;29;20675;-83
2021/07/10 07:57:09;;;;;;;7.43;4.95;;;25.90;99.90;;;;;;4957484;29;20167;-81
2021/07/10 07:59:35;;;;;;;5.15;4.60;;;25.40;99.90;;;;;;4956306;29;20284;-83
2021/07/10 08:02:01;;;;;;;8.20;5.63;;;25.40;99.90;;;;;;4938984;29;20245;-84
2021/07/10 08:04:26;;;;;;;10.68;4.75;;;25.60;99.90;;;;;;4937489;29;20241;-83
2021/07/10 08:06:52;;;;;;;5.25;4.78;;;25.40;99.90;;;;;;4956486;29;20177;-86
2021/07/10 08:09:17;;;;;;;6.65;5.85;;;25.40;99.90;;;;;;4955517;29;20175;-88
2021/07/10 08:11:43;;;;;;;6.22;5.10;;;25.20;99.90;;;;;;4939460;29;20237;-83
2021/07/10 08:14:12;;;;;;;9.68;5.00;;;24.70;99.90;;;;;;4970249;29;20190;-83
2021/07/10 08:16:38;;;;;;;11.70;5.00;;;24.90;99.90;;;;;;4973620;29;20221;-84
2021/07/10 08:19:04;;;;;;;8.02;4.95;;;24.90;99.90;;;;;;4952836;29;20540;-82
2021/07/10 08:21:32;;;;;;;10.07;4.32;;;25.10;99.90;;;;;;4953802;29;20215;-83
2021/07/10 08:23:58;;;;;;;6.97;4.68;;;25.20;99.90;;;;;;4933087;29;20199;-85
2021/07/10 08:26:25;;;;;;;5.38;4.88;;;25.50;99.90;;;;;;4948040;29;20171;-82
2021/07/10 08:28:50;;;;;;;9.52;6.00;;;25.70;99.90;;;;;;4933041;29;20171;-83
2021/07/10 08:31:16;;;;;;;8.18;5.88;;;25.70;99.90;;;;;;4946231;29;20838;-83
2021/07/10 08:33:42;;;;;;;11.63;7.78;;;25.90;99.90;;;;;;4928467;29;20226;-85
2021/07/10 08:36:08;;;;;;;10.60;7.28;;;26.10;99.90;;;;;;4950746;29;20179;-83
2021/07/10 08:38:36;;;;;;;13.70;7.53;;;26.30;99.90;;;;;;4938918;29;20176;-82
2021/07/10 08:41:03;;;;;;;12.43;7.80;;;26.20;99.90;;;;;;4922413;29;20175;-83
2021/07/10 08:43:29;;;;;;;10.15;6.45;;;26.10;99.90;;;;;;4919836;29;20198;-86
2021/07/10 08:45:56;;;;;;;9.18;6.85;;;26.10;99.90;;;;;;4919793;29;20172;-82
2021/07/10 08:48:23;;;;;;;6.90;6.20;;;26.00;99.90;;;;;;4936583;29;20506;-84
2021/07/10 08:50:50;;;;;;;20.30;6.40;;;26.10;99.90;;;;;;4935936;29;20410;-87
2021/07/10 08:53:15;;;;;;;6.72;5.85;;;26.10;99.90;;;;;;4955969;29;20171;-83
2021/07/10 08:55:41;;;;;;;12.10;5.30;;;26.00;99.90;;;;;;4938869;29;20171;-82
2021/07/10 08:58:07;;;;;;;7.03;4.93;;;26.00;99.90;;;;;;4938642;29;20165;-82
2021/07/10 09:00:36;;;;;;;9.98;5.18;;;26.10;99.90;;;;;;4923748;29;20262;-83
2021/07/10 09:03:03;;;;;;;6.38;5.07;;;26.10;99.90;;;;;;4936387;29;20171;-82
2021/07/10 09:05:29;;;;;;;5.78;4.53;;;26.00;99.90;;;;;;4919266;29;20194;-82
2021/07/10 09:08:11;;;;;;;9.98;5.18;;;25.80;99.90;;;;;;4919257;29;20171;-85
2021/07/10 09:10:37;;;;;;;12.13;5.93;;;25.40;99.90;;;;;;4950277;29;20221;-83
2021/07/10 09:13:04;;;;;;;4.25;3.83;;;25.80;99.90;;;;;;4938476;29;20171;-85
2021/07/10 09:15:29;;;;;;;6.68;3.97;;;26.20;99.90;;;;;;4955318;29;20187;-83
2021/07/10 09:17:55;;;;;;;7.65;4.18;;;26.60;99.90;;;;;;4955300;29;20178;-82
2021/07/10 09:20:24;;;;;;;4.40;4.00;;;26.40;99.90;;;;;;4925341;29;20203;-82
2021/07/10 09:22:50;;;;;;;10.25;4.72;;;26.10;99.90;;;;;;4918892;29;20190;-82
2021/07/10 09:25:29;;;;;;;8.45;4.72;;;26.20;99.90;;;;;;4918793;29;20671;-81
2021/07/10 09:27:56;;;;;;;6.57;3.85;;;26.50;99.90;;;;;;4937068;29;20198;-84
2021/07/10 09:30:35;;;;;;;4.20;3.80;;;26.40;99.90;;;;;;4932685;29;20579;-83
2021/07/10 09:33:21;;;;;;;3.83;3.47;;;26.30;99.90;;;;;;4951788;29;20182;-83
2021/07/10 09:35:54;;;;;;;6.25;2.67;;;26.70;99.90;;;;;;4937058;29;20186;-83
2021/07/10 09:38:24;;;;;;;3.20;2.90;;;26.40;99.90;;;;;;4953431;28;20586;-82
2021/07/10 09:40:57;;;;;;;3.42;2.70;;;26.40;99.90;;;;;;4952494;29;20686;-82
2021/07/10 09:43:28;;;;;;;4.70;3.05;;;26.70;99.90;;;;;;4942081;28;20739;-83
2021/07/10 09:45:57;;;;;;;4.47;2.20;;;27.20;99.90;;;;;;4954803;29;20261;-84
2021/07/10 09:48:31;;;;;;;5.70;2.75;;;27.10;99.90;;;;;;4938190;29;20171;-84
2021/07/10 09:51:19;;;;;;;5.85;2.78;;;26.60;99.90;;;;;;4941271;29;20694;-84
2021/07/10 09:54:03;;;;;;;4.88;2.53;;;26.60;99.90;;;;;;4953220;28;20208;-82
2021/07/10 09:56:30;;;;;;;3.90;3.08;;;26.30;99.90;;;;;;4954388;28;20175;-83
2021/07/10 09:58:58;;;;;;;12.82;2.65;;;25.30;99.90;;;;;;4937167;29;20291;-83
2021/07/10 10:01:32;;;;;;;6.63;3.30;;;25.30;99.90;;;;;;4937595;29;20178;-84
2021/07/10 10:03:59;;;;;;;10.40;3.13;;;25.80;99.90;;;;;;4936985;29;20197;-81
2021/07/10 10:06:29;;;;;;;4.68;2.83;;;25.70;99.90;;;;;;4953633;29;20178;-83
2021/07/10 10:08:59;;;;;;;4.88;2.28;;;25.80;99.90;;;;;;4953546;29;20186;-85
2021/07/10 10:11:25;;;;;;;2.78;2.33;;;25.90;99.90;;;;;;4947537;28;20214;-84
2021/07/10 10:13:52;;;;;;;6.10;2.63;;;25.90;99.90;;;;;;4935714;29;20277;-84
2021/07/10 10:16:19;;;;;;;3.22;2.53;;;26.20;99.90;;;;;;4949191;29;20182;-83
2021/07/10 10:18:46;;;;;;;4.10;2.20;;;26.40;99.90;;;;;;4934174;29;20178;-83
2021/07/10 10:21:11;;;;;;;4.55;2.15;;;26.60;99.90;;;;;;4952253;28;20213;-85
2021/07/10 10:23:37;;;;;;;3.63;2.58;;;26.90;99.90;;;;;;4953242;28;20222;-83
2021/07/10 10:26:04;;;;;;;4.65;2.53;;;26.80;99.90;;;;;;4936799;28;20306;-83
2021/07/10 10:28:33;;;;;;;3.80;2.25;;;27.40;99.90;;;;;;4936848;29;20181;-84
2021/07/10 10:30:59;;;;;;;5.72;2.10;;;27.30;99.90;;;;;;4936885;29;20221;-88
2021/07/10 10:33:28;;;;;;;7.80;2.45;;;27.20;99.90;;;;;;4952819;29;20277;-82
2021/07/10 10:35:55;;;;;;;2.47;2.17;;;27.40;99.90;;;;;;4954031;28;20189;-83
2021/07/10 10:38:22;;;;;;;3.45;2.80;;;27.70;99.90;;;;;;4954037;29;20179;-83
2021/07/10 10:40:51;;;;;;;6.57;2.55;;;27.90;99.90;;;;;;4951263;29;20553;-83
2021/07/10 10:43:17;;;;;;;3.42;2.60;;;27.50;99.90;;;;;;4953368;29;20166;-83
2021/07/10 10:45:44;;;;;;;2.53;2.10;;;26.80;99.90;;;;;;4936788;29;20262;-83
2021/07/10 10:48:10;;;;;;;3.25;2.58;;;26.40;99.90;;;;;;4954419;29;20702;-83
2021/07/10 10:50:38;;;;;;;4.47;2.85;;;26.50;99.90;;;;;;4948642;29;20298;-83
2021/07/10 10:53:06;;;;;;;4.03;3.00;;;26.70;99.90;;;;;;4948709;28;20643;-83
2021/07/10 10:55:31;;;;;;;2.60;2.40;;;26.80;99.90;;;;;;4952868;28;20257;-83
2021/07/10 10:58:10;;;;;;;4.75;2.08;;;26.50;99.90;;;;;;4956562;29;20274;-82
2021/07/10 11:00:38;;;;;;;8.68;7.78;;;26.40;99.90;;;;;;4958290;29;20234;-84
2021/07/10 11:03:12;;;;;;;8.63;7.80;;;26.70;99.90;;;;;;4956630;29;20546;-83
2021/07/10 11:05:39;;;;;;;4.80;4.43;;;26.40;99.90;;;;;;4956609;29;20178;-82
2021/07/10 11:08:27;;;;;;;10.25;5.38;;;26.70;99.90;;;;;;4941815;28;20174;-82
2021/07/10 11:10:58;;;;;;;3.35;2.30;;;26.90;99.90;;;;;;4940522;29;20218;-83
2021/07/10 11:13:46;;;;;;;3.42;2.72;;;27.20;99.90;;;;;;4957012;29;20191;-83
2021/07/10 11:16:18;;;;;;;3.40;2.78;;;27.20;99.90;;;;;;4938288;29;20282;-82
2021/07/10 11:19:07;;;;;;;4.65;2.40;;;27.40;99.90;;;;;;4956688;29;20181;-82
2021/07/10 11:21:39;;;;;;;3.75;2.38;;;27.70;99.90;;;;;;4956634;29;20174;-82
2021/07/10 11:24:19;;;;;;;7.25;2.50;;;27.90;99.90;;;;;;4956527;29;20253;-83
2021/07/10 11:26:57;;;;;;;2.60;2.00;;;27.80;99.90;;;;;;4936692;29;20179;-83
2021/07/10 11:29:27;;;;;;;5.78;2.75;;;27.90;99.90;;;;;;4951209;28;20178;-82
2021/07/10 11:31:54;;;;;;;3.53;3.22;;;27.70;99.90;;;;;;4940060;29;20182;-87
2021/07/10 11:34:56;;;;;;;5.80;2.17;;;27.80;99.90;;;;;;4939819;29;20187;-86
2021/07/10 11:37:41;;;;;;;3.50;2.33;;;27.50;99.90;;;;;;4909820;29;20191;-85
2021/07/10 11:40:08;;;;;;;7.15;2.35;;;27.50;99.90;;;;;;4952413;28;20538;-85
2021/07/10 11:42:46;;;;;;;8.65;3.60;;;27.10;99.90;;;;;;4947250;28;20179;-85
2021/07/10 11:45:15;;;;;;;9.63;3.90;;;26.50;99.90;;;;;;4938063;29;20245;-82
2021/07/10 11:47:43;;;;;;;5.43;3.13;;;25.70;99.90;;;;;;4921371;29;20179;-82
2021/07/10 11:50:16;;;;;;;4.82;3.58;;;25.40;99.90;;;;;;4920806;29;20207;-82
2021/07/10 11:52:54;;;;;;;3.78;2.88;;;25.40;99.90;;;;;;4956564;29;20620;-85
2021/07/10 11:55:22;;;;;;;5.47;3.67;;;25.50;99.90;;;;;;4939239;29;20201;-83
2021/07/10 11:57:47;;;;;;;7.40;2.78;;;25.50;99.90;;;;;;4956323;29;20167;-82
2021/07/10 12:00:14;;;;;;;3.20;2.75;;;25.40;99.90;;;;;;4938457;29;20194;-82
2021/07/10 12:02:41;;;;;;;4.32;3.40;;;25.40;99.90;;;;;;4955267;29;20183;-82
2021/07/10 12:05:07;;;;;;;7.28;3.50;;;25.40;99.90;;;;;;4955850;29;20195;-84
2021/07/10 12:07:40;;;;;;;6.10;3.30;;;25.60;99.90;;;;;;4954890;28;20170;-82
2021/07/10 12:10:09;;;;;;;4.22;3.00;;;25.60;99.90;;;;;;4938859;29;20262;-82
2021/07/10 12:12:47;;;;;;;4.15;3.25;;;26.00;99.90;;;;;;4954589;29;20508;-82
2021/07/10 12:15:17;;;;;;;4.25;3.15;;;26.30;99.90;;;;;;4954884;29;20569;-80
2021/07/10 12:17:45;;;;;;;7.28;2.67;;;26.10;99.90;;;;;;4955334;29;20202;-81
2021/07/10 12:20:12;;;;;;;3.75;2.90;;;26.10;99.90;;;;;;4955657;29;20171;-81
2021/07/10 12:22:48;;;;;;;2.53;2.33;;;26.30;99.90;;;;;;4938238;29;20221;-81
2021/07/10 12:25:13;;;;;;;4.43;2.47;;;26.30;99.90;;;;;;4933150;29;20218;-86
2021/07/10 12:27:39;;;;;;;2.65;2.00;;;26.20;99.90;;;;;;4955506;29;20202;-88
2021/07/10 12:30:05;;;;;;;4.43;3.15;;;26.10;99.90;;;;;;4955355;29;20241;-87
2021/07/10 12:32:33;;;;;;;2.72;2.47;;;26.30;99.90;;;;;;4938737;29;20209;-84
2021/07/10 12:34:58;;;;;;;2.95;2.60;;;26.20;99.90;;;;;;4938229;29;20273;-83
2021/07/10 12:37:28;;;;;;;3.03;2.72;;;26.10;99.90;;;;;;4955854;29;20257;-83